Time;durP1;ratioP1;P1;durP2;ratioP2;P2;SDS_P1;SDS_P2;PMS_P1;PMS_P2;Temp;Humidity;BMP_temperature;BMP_pressure;BME280_temperature;BME280_humidity;BME280_pressure;Samples;Min_cycle;Max_cycle;Signal;HPM_P1;HPM_P2
2023/04/01 00:01:00;;;;;;;8.93;6.13;;;9.30;99.90;;;;;;4878748;29;20548;-74
2023/04/01 00:03:27;;;;;;;9.37;6.60;;;9.30;99.90;;;;;;4861748;29;20057;-73
2023/04/01 00:05:58;;;;;;;10.90;7.00;;;9.30;99.90;;;;;;4877713;29;20288;-73
2023/04/01 00:08:25;;;;;;;10.55;6.68;;;9.30;99.90;;;;;;4872333;29;20384;-73
2023/04/01 00:10:51;;;;;;;9.70;7.32;;;9.30;99.90;;;;;;4857544;29;20044;-73
2023/04/01 00:13:17;;;;;;;10.35;6.93;;;9.30;99.90;;;;;;4860552;29;20422;-73
2023/04/01 00:15:43;;;;;;;11.75;6.75;;;9.30;99.90;;;;;;4861513;29;20044;-74
2023/04/01 00:18:09;;;;;;;9.80;7.10;;;9.40;99.90;;;;;;4877106;29;20049;-74
2023/04/01 00:20:35;;;;;;;10.03;6.63;;;9.40;99.90;;;;;;4862868;29;20354;-74
2023/04/01 00:23:01;;;;;;;9.37;6.97;;;9.40;99.90;;;;;;4862655;29;20248;-74
2023/04/01 00:25:27;;;;;;;11.70;7.40;;;9.40;99.90;;;;;;4877472;29;20434;-74
2023/04/01 00:27:53;;;;;;;9.57;7.10;;;9.40;99.90;;;;;;4873207;29;20135;-74
2023/04/01 00:30:19;;;;;;;11.03;7.03;;;9.40;99.90;;;;;;4861711;29;20090;-74
2023/04/01 00:32:45;;;;;;;9.13;6.95;;;9.40;99.90;;;;;;4877793;29;20079;-74
2023/04/01 00:35:12;;;;;;;10.33;6.60;;;9.40;99.90;;;;;;4861925;29;20064;-74
2023/04/01 00:37:39;;;;;;;10.73;6.75;;;9.40;99.90;;;;;;4862324;29;20056;-74
2023/04/01 00:40:06;;;;;;;9.23;7.00;;;9.40;99.90;;;;;;4873283;29;20041;-74
2023/04/01 00:42:32;;;;;;;9.88;7.60;;;9.40;99.90;;;;;;4861713;29;20072;-74
2023/04/01 00:44:58;;;;;;;11.37;7.57;;;9.40;99.90;;;;;;4877472;29;20072;-74
2023/04/01 00:47:26;;;;;;;10.93;7.70;;;9.40;99.90;;;;;;4872391;29;20393;-74
2023/04/01 00:49:54;;;;;;;10.98;7.72;;;9.40;99.90;;;;;;4870567;29;20116;-73
2023/04/01 00:52:25;;;;;;;12.25;7.28;;;9.40;99.90;;;;;;4861736;29;20044;-73
2023/04/01 00:54:56;;;;;;;10.20;7.15;;;9.40;99.90;;;;;;4857961;29;20479;-73
2023/04/01 00:57:30;;;;;;;9.52;7.15;;;9.40;99.90;;;;;;4876092;29;20052;-73
2023/04/01 00:59:57;;;;;;;9.73;6.30;;;9.40;99.90;;;;;;4876629;29;20082;-73
2023/04/01 01:02:23;;;;;;;7.93;6.38;;;9.40;99.90;;;;;;4861217;29;20048;-73
2023/04/01 01:04:49;;;;;;;9.77;6.55;;;9.40;99.90;;;;;;4860137;29;20048;-73
2023/04/01 01:07:42;;;;;;;10.33;6.60;;;9.40;99.90;;;;;;4855929;29;20046;-73
2023/04/01 01:10:29;;;;;;;7.05;5.00;;;9.40;99.90;;;;;;4847754;29;20101;-73
2023/04/01 01:13:18;;;;;;;4.13;3.10;;;9.40;99.90;;;;;;4860444;29;20044;-73
2023/04/01 01:16:02;;;;;;;2.92;2.05;;;9.30;99.90;;;;;;4859182;29;20068;-73
2023/04/01 01:18:38;;;;;;;4.63;2.05;;;9.30;99.90;;;;;;4855019;29;20057;-73
2023/04/01 01:21:49;;;;;;;4.60;2.90;;;9.30;99.90;;;;;;4876552;29;20049;-73
2023/04/01 01:24:49;;;;;;;5.90;3.58;;;9.20;99.90;;;;;;4882961;29;20087;-73
2023/04/01 01:27:20;;;;;;;6.63;4.00;;;9.20;99.90;;;;;;4877051;29;20040;-73
2023/04/01 01:29:58;;;;;;;6.85;5.40;;;9.20;99.90;;;;;;4873152;29;20081;-73
2023/04/01 01:32:59;;;;;;;9.43;6.03;;;9.20;99.90;;;;;;4875975;29;20127;-73
2023/04/01 01:35:36;;;;;;;9.50;7.00;;;9.30;99.90;;;;;;4832473;29;20397;-73
2023/04/01 01:38:07;;;;;;;11.30;7.63;;;9.20;99.90;;;;;;4876735;29;20048;-73
2023/04/01 01:40:35;;;;;;;10.55;8.00;;;9.20;99.90;;;;;;4861085;29;20396;-73
2023/04/01 01:43:06;;;;;;;11.32;8.40;;;9.20;99.90;;;;;;4861178;29;20136;-73
2023/04/01 01:45:35;;;;;;;12.07;8.13;;;9.20;99.90;;;;;;4852577;29;20081;-73
2023/04/01 01:48:04;;;;;;;14.32;8.88;;;9.20;99.90;;;;;;4855661;29;20509;-73
2023/04/01 01:50:31;;;;;;;11.07;8.27;;;9.30;99.90;;;;;;4861586;29;20048;-73
2023/04/01 01:53:10;;;;;;;11.00;7.80;;;9.20;99.90;;;;;;4880523;29;20504;-73
2023/04/01 01:55:38;;;;;;;11.88;8.10;;;9.30;99.90;;;;;;4864216;29;20055;-73
2023/04/01 01:58:24;;;;;;;11.40;7.95;;;9.30;99.90;;;;;;4867890;29;20104;-73
2023/04/01 02:00:55;;;;;;;10.57;7.60;;;9.30;99.90;;;;;;4864485;29;20386;-73
2023/04/01 02:03:24;;;;;;;9.55;6.15;;;9.30;99.90;;;;;;4863637;29;20116;-73
2023/04/01 02:05:52;;;;;;;9.80;6.60;;;9.30;99.90;;;;;;4861966;29;20048;-73
2023/04/01 02:08:30;;;;;;;10.85;7.68;;;9.30;99.90;;;;;;4880109;29;20390;-73
2023/04/01 02:11:04;;;;;;;10.73;7.13;;;9.30;99.90;;;;;;4857953;29;20410;-73
2023/04/01 02:13:47;;;;;;;9.27;6.47;;;9.30;99.90;;;;;;4859846;29;20416;-73
2023/04/01 02:16:22;;;;;;;11.88;7.78;;;9.30;99.90;;;;;;4863504;29;20040;-73
2023/04/01 02:18:52;;;;;;;13.68;8.32;;;9.30;99.90;;;;;;4878695;29;20135;-74
2023/04/01 02:21:21;;;;;;;10.85;7.57;;;9.30;99.90;;;;;;4864580;29;20228;-74
2023/04/01 02:23:47;;;;;;;13.48;7.93;;;9.30;99.90;;;;;;4879191;29;20079;-74
2023/04/01 02:26:14;;;;;;;15.80;9.00;;;9.30;99.90;;;;;;4879308;29;20044;-74
2023/04/01 02:28:41;;;;;;;12.05;8.60;;;9.30;99.90;;;;;;4879449;29;20060;-74
2023/04/01 02:31:10;;;;;;;13.10;9.10;;;9.30;99.90;;;;;;4877342;29;21160;-74
2023/04/01 02:33:38;;;;;;;12.25;8.43;;;9.30;99.90;;;;;;4856312;29;20305;-74
2023/04/01 02:36:05;;;;;;;14.23;8.45;;;9.30;99.90;;;;;;4864012;29;20438;-74
2023/04/01 02:38:30;;;;;;;15.02;8.70;;;9.30;99.90;;;;;;4863916;29;20513;-74
2023/04/01 02:41:02;;;;;;;15.33;8.93;;;9.30;99.90;;;;;;4864543;29;20087;-74
2023/04/01 02:43:28;;;;;;;13.27;9.02;;;9.30;99.90;;;;;;4879321;29;20088;-74
2023/04/01 02:45:54;;;;;;;13.27;8.02;;;9.40;99.90;;;;;;4864981;29;20127;-74
2023/04/01 02:48:20;;;;;;;13.93;7.57;;;9.30;99.90;;;;;;4862888;29;20537;-74
2023/04/01 02:50:46;;;;;;;11.93;7.37;;;9.40;99.90;;;;;;4864373;29;20103;-74
2023/04/01 02:53:12;;;;;;;10.63;7.72;;;9.30;99.90;;;;;;4861647;29;20054;-74
2023/04/01 02:55:37;;;;;;;13.27;8.07;;;9.30;99.90;;;;;;4859100;29;20089;-74
2023/04/01 02:58:03;;;;;;;12.77;8.40;;;9.30;99.90;;;;;;4863107;29;20045;-74
2023/04/01 03:00:30;;;;;;;14.73;8.20;;;9.30;99.90;;;;;;4860338;29;20049;-74
2023/04/01 03:02:56;;;;;;;15.40;9.13;;;9.30;99.90;;;;;;4859197;29;20565;-74
2023/04/01 03:05:23;;;;;;;15.05;9.45;;;9.30;99.90;;;;;;4856249;29;20052;-74
2023/04/01 03:07:49;;;;;;;13.80;8.85;;;9.30;99.90;;;;;;4878382;29;20053;-74
2023/04/01 03:10:14;;;;;;;14.02;8.43;;;9.30;99.90;;;;;;4878181;29;20128;-74
2023/04/01 03:12:41;;;;;;;12.77;8.40;;;9.30;99.90;;;;;;4877604;29;20123;-74
2023/04/01 03:15:06;;;;;;;16.48;9.30;;;9.30;99.90;;;;;;4863500;29;20036;-74
2023/04/01 03:17:32;;;;;;;15.40;8.83;;;9.30;99.90;;;;;;4863701;29;20036;-74
2023/04/01 03:19:58;;;;;;;13.20;9.57;;;9.30;99.90;;;;;;4863105;29;20085;-74
2023/04/01 03:22:24;;;;;;;12.90;8.70;;;9.30;99.90;;;;;;4863166;29;20063;-74
2023/04/01 03:24:50;;;;;;;12.30;8.30;;;9.30;99.90;;;;;;4863719;29;20048;-74
2023/04/01 03:27:15;;;;;;;13.10;8.67;;;9.30;99.90;;;;;;4876925;29;20044;-74
2023/04/01 03:29:41;;;;;;;12.57;8.53;;;9.30;99.90;;;;;;4863791;29;20041;-74
2023/04/01 03:32:07;;;;;;;14.87;9.13;;;9.20;99.90;;;;;;4860151;29;20045;-74
2023/04/01 03:34:32;;;;;;;15.10;9.00;;;9.20;99.90;;;;;;4863134;29;20051;-73
2023/04/01 03:36:59;;;;;;;12.70;8.87;;;9.20;99.90;;;;;;4863143;29;20066;-73
2023/04/01 03:39:25;;;;;;;15.88;9.38;;;9.20;99.90;;;;;;4878454;29;20437;-73
2023/04/01 03:41:50;;;;;;;16.90;9.37;;;9.20;99.90;;;;;;4862264;29;20446;-74
2023/04/01 03:44:16;;;;;;;18.60;8.77;;;9.10;99.90;;;;;;4872984;29;20330;-74
2023/04/01 03:46:42;;;;;;;13.87;8.87;;;9.20;99.90;;;;;;4859027;29;20501;-74
2023/04/01 03:49:13;;;;;;;14.90;9.17;;;9.10;99.90;;;;;;4862593;29;20536;-74
2023/04/01 03:51:40;;;;;;;13.77;8.82;;;9.10;99.90;;;;;;4860086;29;20044;-74
2023/04/01 03:54:06;;;;;;;16.02;9.57;;;9.10;99.90;;;;;;4878306;29;20119;-74
2023/04/01 03:56:32;;;;;;;13.73;9.10;;;9.10;99.90;;;;;;4877794;29;20048;-74
2023/04/01 03:59:01;;;;;;;15.87;9.53;;;9.10;99.90;;;;;;4862999;29;20051;-74
2023/04/01 04:01:27;;;;;;;16.70;10.03;;;9.10;99.90;;;;;;4874769;29;20663;-74
2023/04/01 04:03:53;;;;;;;14.27;9.80;;;9.10;99.90;;;;;;4875413;29;20297;-74
2023/04/01 04:06:19;;;;;;;16.67;10.47;;;9.10;99.90;;;;;;4866722;29;20047;-74
2023/04/01 04:08:45;;;;;;;17.17;10.20;;;9.20;99.90;;;;;;4862584;29;20051;-74
2023/04/01 04:11:11;;;;;;;16.05;9.50;;;9.20;99.90;;;;;;4862332;29;20045;-74
2023/04/01 04:13:37;;;;;;;16.53;10.13;;;9.10;99.90;;;;;;4866915;29;20439;-73
2023/04/01 04:16:03;;;;;;;16.30;10.50;;;9.20;99.90;;;;;;4862177;29;20131;-73
2023/04/01 04:18:29;;;;;;;17.08;10.43;;;9.20;99.90;;;;;;4877470;29;20087;-73
2023/04/01 04:20:55;;;;;;;16.10;10.38;;;9.20;99.90;;;;;;4877733;29;20057;-73
2023/04/01 04:23:21;;;;;;;16.60;10.32;;;9.20;99.90;;;;;;4860097;29;20461;-73
2023/04/01 04:26:02;;;;;;;15.43;10.10;;;9.20;99.90;;;;;;4861782;29;20056;-73
2023/04/01 04:28:29;;;;;;;20.35;10.77;;;9.20;99.90;;;;;;4862383;29;20836;-73
2023/04/01 04:30:55;;;;;;;18.05;11.73;;;9.20;99.90;;;;;;4877060;29;20048;-73
2023/04/01 04:33:22;;;;;;;18.20;11.23;;;9.20;99.90;;;;;;4868219;29;20454;-73
2023/04/01 04:35:47;;;;;;;20.20;11.25;;;9.10;99.90;;;;;;4876486;29;20333;-73
2023/04/01 04:38:13;;;;;;;17.40;11.30;;;9.20;99.90;;;;;;4877433;29;20045;-73
2023/04/01 04:40:40;;;;;;;20.07;11.20;;;9.10;99.90;;;;;;4872355;29;20103;-73
2023/04/01 04:43:07;;;;;;;17.70;11.77;;;9.20;99.90;;;;;;4877583;29;20452;-73
2023/04/01 04:45:32;;;;;;;18.13;10.67;;;9.10;99.90;;;;;;4860898;29;20367;-73
2023/04/01 04:47:58;;;;;;;18.87;11.27;;;9.10;99.90;;;;;;4861379;29;20367;-73
2023/04/01 04:50:25;;;;;;;17.25;10.95;;;9.20;99.90;;;;;;4862153;29;20454;-73
2023/04/01 04:52:51;;;;;;;18.63;11.07;;;9.10;99.90;;;;;;4861880;29;20127;-73
2023/04/01 04:55:17;;;;;;;17.67;10.93;;;9.20;99.90;;;;;;4864897;29;20426;-73
2023/04/01 04:57:43;;;;;;;19.65;11.32;;;9.10;99.90;;;;;;4876506;29;20044;-73
2023/04/01 05:00:10;;;;;;;19.53;11.37;;;9.20;99.90;;;;;;4876727;29;20063;-73
2023/04/01 05:02:36;;;;;;;16.08;10.45;;;9.20;99.90;;;;;;4856034;29;20086;-73
2023/04/01 05:05:02;;;;;;;18.10;11.13;;;9.20;99.90;;;;;;4855826;29;20152;-73
2023/04/01 05:07:27;;;;;;;19.57;11.43;;;9.20;99.90;;;;;;4860230;29;20048;-73
2023/04/01 05:09:53;;;;;;;17.60;11.13;;;9.20;99.90;;;;;;4876260;29;20146;-73
2023/04/01 05:12:19;;;;;;;17.10;11.20;;;9.20;99.90;;;;;;4860907;29;20036;-73
2023/04/01 05:14:44;;;;;;;17.80;10.80;;;9.20;99.90;;;;;;4876550;29;20111;-73
2023/04/01 05:17:12;;;;;;;20.80;11.70;;;9.10;99.90;;;;;;4861292;29;20266;-73
2023/04/01 05:19:38;;;;;;;18.98;11.40;;;9.20;99.90;;;;;;4859615;29;20144;-73
2023/04/01 05:22:05;;;;;;;21.17;12.13;;;9.20;99.90;;;;;;4860415;29;20051;-73
2023/04/01 05:24:31;;;;;;;21.45;11.90;;;9.20;99.90;;;;;;4873357;29;20047;-73
2023/04/01 05:26:57;;;;;;;20.92;12.40;;;9.20;99.90;;;;;;4875215;29;20648;-73
2023/04/01 05:29:24;;;;;;;19.00;11.85;;;9.20;99.90;;;;;;4860247;29;20048;-73
2023/04/01 05:31:50;;;;;;;21.30;13.65;;;9.20;99.90;;;;;;4875557;29;20051;-73
2023/04/01 05:34:16;;;;;;;21.43;12.80;;;9.20;99.90;;;;;;4876202;29;20048;-73
2023/04/01 05:36:43;;;;;;;21.50;12.90;;;9.20;99.90;;;;;;4867282;29;20430;-73
2023/04/01 05:39:09;;;;;;;20.80;12.45;;;9.20;99.90;;;;;;4860565;29;20051;-73
2023/04/01 05:41:35;;;;;;;22.23;12.63;;;9.20;99.90;;;;;;4860422;29;20409;-73
2023/04/01 05:44:01;;;;;;;24.27;13.80;;;9.20;99.90;;;;;;4876583;29;20056;-73
2023/04/01 05:46:27;;;;;;;24.67;13.80;;;9.20;99.90;;;;;;4861125;29;20289;-73
2023/04/01 05:48:53;;;;;;;22.37;13.47;;;9.20;99.90;;;;;;4847009;29;20497;-73
2023/04/01 05:51:19;;;;;;;23.50;14.10;;;9.20;99.90;;;;;;4860448;29;20293;-73
2023/04/01 05:53:45;;;;;;;24.58;13.88;;;9.20;99.90;;;;;;4876476;29;20126;-73
2023/04/01 05:56:11;;;;;;;22.27;13.70;;;9.20;99.90;;;;;;4860993;29;20482;-73
2023/04/01 05:58:38;;;;;;;22.38;13.98;;;9.20;99.90;;;;;;4860223;29;20055;-73
2023/04/01 06:01:06;;;;;;;24.20;13.88;;;9.20;99.90;;;;;;4875971;29;20472;-73
2023/04/01 06:03:32;;;;;;;21.73;13.70;;;9.30;99.90;;;;;;4876562;29;20068;-73
2023/04/01 06:05:58;;;;;;;26.90;15.20;;;9.30;99.90;;;;;;4866303;29;20529;-73
2023/04/01 06:08:24;;;;;;;22.63;13.60;;;9.30;99.90;;;;;;4876304;29;20048;-73
2023/04/01 06:11:13;;;;;;;25.88;14.73;;;9.30;99.90;;;;;;4858058;29;20072;-73
2023/04/01 06:14:00;;;;;;;26.48;13.98;;;9.30;99.90;;;;;;4873714;29;20124;-73
2023/04/01 06:16:50;;;;;;;28.83;14.95;;;9.30;99.90;;;;;;4861081;29;20087;-73
2023/04/01 06:19:32;;;;;;;24.30;14.07;;;9.30;99.90;;;;;;4875803;29;20048;-73
2023/04/01 06:22:04;;;;;;;25.45;14.98;;;9.30;99.90;;;;;;4890493;29;20442;-74
2023/04/01 06:24:45;;;;;;;24.83;13.35;;;9.30;99.90;;;;;;4884942;29;20048;-73
2023/04/01 06:27:42;;;;;;;25.50;14.38;;;9.30;99.90;;;;;;4862188;29;20051;-74
2023/04/01 06:30:08;;;;;;;26.90;15.30;;;9.30;99.90;;;;;;4874910;29;20124;-74
2023/04/01 06:32:48;;;;;;;24.63;14.27;;;9.30;99.90;;;;;;4859092;29;20370;-74
2023/04/01 06:35:36;;;;;;;24.23;14.00;;;9.30;99.90;;;;;;4860552;29;20049;-74
2023/04/01 06:38:08;;;;;;;22.67;13.35;;;9.30;99.90;;;;;;4854403;29;20048;-74
2023/04/01 06:40:40;;;;;;;26.85;14.43;;;9.30;99.90;;;;;;4863489;29;20084;-74
2023/04/01 06:43:11;;;;;;;24.27;13.93;;;9.30;99.90;;;;;;4880852;29;20072;-74
2023/04/01 06:45:45;;;;;;;25.60;13.88;;;9.30;99.90;;;;;;4864156;29;20285;-74
2023/04/01 06:48:20;;;;;;;28.25;14.48;;;9.40;99.90;;;;;;4854002;29;20516;-74
2023/04/01 06:51:02;;;;;;;21.83;13.65;;;9.40;99.90;;;;;;4879347;29;20045;-74
2023/04/01 06:53:31;;;;;;;;;;;9.40;99.90;;;;;;4865592;29;20064;-74
2023/04/01 06:56:01;;;;;;;26.10;13.73;;;9.40;99.90;;;;;;4881452;29;19919;-74
2023/04/01 06:58:34;;;;;;;27.93;15.30;;;9.40;99.90;;;;;;4876729;29;20052;-74
2023/04/01 07:01:04;;;;;;;24.43;14.47;;;9.40;99.90;;;;;;4875079;29;20337;-75
2023/04/01 07:03:36;;;;;;;24.92;13.95;;;9.40;99.90;;;;;;4864750;29;20641;-74
2023/04/01 07:06:12;;;;;;;26.57;14.40;;;9.40;99.90;;;;;;4863126;29;20084;-74
2023/04/01 07:08:43;;;;;;;25.20;14.48;;;9.40;99.90;;;;;;4865232;29;20736;-74
2023/04/01 07:11:26;;;;;;;23.95;14.20;;;9.50;99.90;;;;;;4864782;29;20040;-75
2023/04/01 07:14:03;;;;;;;24.67;14.25;;;9.50;99.90;;;;;;4858612;29;20037;-74
2023/04/01 07:16:43;;;;;;;22.80;13.20;;;9.50;99.90;;;;;;4878834;29;20048;-74
2023/04/01 07:19:12;;;;;;;25.83;13.93;;;9.50;99.90;;;;;;4881617;29;20406;-75
2023/04/01 07:21:48;;;;;;;22.55;12.80;;;9.50;99.90;;;;;;4855989;29;20793;-74
2023/04/01 07:24:29;;;;;;;24.48;13.30;;;9.50;99.90;;;;;;4862542;29;20127;-73
2023/04/01 07:26:56;;;;;;;25.30;12.80;;;9.50;99.90;;;;;;4860078;29;20750;-74
2023/04/01 07:29:23;;;;;;;22.00;11.82;;;9.50;99.90;;;;;;4857779;29;20104;-74
2023/04/01 07:32:04;;;;;;;25.23;13.00;;;9.50;99.90;;;;;;4874304;29;20549;-73
2023/04/01 07:35:08;;;;;;;18.60;11.60;;;9.50;99.90;;;;;;4872719;29;20041;-73
2023/04/01 07:38:13;;;;;;;19.10;10.68;;;9.50;99.90;;;;;;4851295;29;20072;-74
2023/04/01 07:41:04;;;;;;;19.52;10.93;;;9.50;99.90;;;;;;4880369;29;20099;-74
2023/04/01 07:43:39;;;;;;;23.38;11.73;;;9.50;99.90;;;;;;4871829;29;20498;-73
2023/04/01 07:46:08;;;;;;;21.45;11.93;;;9.50;99.90;;;;;;4865319;29;20047;-73
2023/04/01 07:48:59;;;;;;;29.75;13.63;;;9.50;99.90;;;;;;4878932;29;20584;-73
2023/04/01 07:51:46;;;;;;;25.08;14.18;;;9.50;99.90;;;;;;4873715;29;20559;-74
2023/04/01 07:54:15;;;;;;;24.67;12.33;;;9.50;99.90;;;;;;4883354;29;20532;-76
2023/04/01 07:57:05;;;;;;;27.88;14.05;;;9.50;99.90;;;;;;4883214;29;20856;-76
2023/04/01 07:59:58;;;;;;;25.55;13.75;;;9.60;99.90;;;;;;4865654;29;20405;-75
2023/04/01 08:03:01;;;;;;;27.58;13.77;;;9.60;99.90;;;;;;4860940;29;20052;-75
2023/04/01 08:05:30;;;;;;;31.35;13.90;;;9.60;99.90;;;;;;4861032;29;20049;-76
2023/04/01 08:08:10;;;;;;;24.40;14.02;;;9.60;99.90;;;;;;4863465;29;20516;-75
2023/04/01 08:10:59;;;;;;;27.57;14.77;;;9.70;99.90;;;;;;4874576;29;20041;-75
2023/04/01 08:13:38;;;;;;;27.98;14.63;;;9.70;99.90;;;;;;4871044;29;20291;-75
2023/04/01 08:16:37;;;;;;;23.45;14.20;;;9.70;99.90;;;;;;4859807;29;20047;-76
2023/04/01 08:19:03;;;;;;;28.08;14.45;;;9.80;99.90;;;;;;4858647;29;20040;-75
2023/04/01 08:21:34;;;;;;;26.23;14.07;;;9.80;99.90;;;;;;4860065;29;20532;-76
2023/04/01 08:24:19;;;;;;;26.45;14.45;;;9.80;99.90;;;;;;4875745;29;20052;-76
2023/04/01 08:26:51;;;;;;;26.15;15.05;;;9.90;99.90;;;;;;4875583;29;20466;-76
2023/04/01 08:29:21;;;;;;;26.20;15.45;;;9.90;99.90;;;;;;4873032;29;20053;-76
2023/04/01 08:31:57;;;;;;;25.03;15.00;;;9.90;99.90;;;;;;4856533;29;20046;-76
2023/04/01 08:34:29;;;;;;;29.10;15.83;;;9.90;99.90;;;;;;4871377;29;20331;-76
2023/04/01 08:37:25;;;;;;;27.35;15.32;;;10.00;99.90;;;;;;4856747;29;20288;-76
2023/04/01 08:39:57;;;;;;;23.33;14.80;;;10.10;99.90;;;;;;4858134;29;20040;-76
2023/04/01 08:42:58;;;;;;;26.57;15.57;;;10.20;99.90;;;;;;4859001;29;20783;-76
2023/04/01 08:45:45;;;;;;;27.40;15.73;;;10.30;99.90;;;;;;4863079;29;20783;-76
2023/04/01 08:48:48;;;;;;;29.30;15.70;;;10.30;99.90;;;;;;4857789;29;20294;-76
2023/04/01 08:51:32;;;;;;;32.23;15.50;;;10.30;99.90;;;;;;4867823;29;20366;-76
2023/04/01 08:54:16;;;;;;;36.60;16.53;;;10.30;99.90;;;;;;4873415;29;20782;-76
2023/04/01 08:57:07;;;;;;;29.90;15.00;;;10.30;99.90;;;;;;4863101;29;20328;-76
2023/04/01 09:00:15;;;;;;;27.87;15.10;;;10.30;99.90;;;;;;4860323;29;20284;-76
2023/04/01 09:02:57;;;;;;;25.33;14.80;;;10.40;99.90;;;;;;4877346;29;20747;-76
2023/04/01 09:05:30;;;;;;;27.27;13.93;;;10.40;99.90;;;;;;4854028;29;20288;-76
2023/04/01 09:08:05;;;;;;;24.23;13.07;;;10.40;99.90;;;;;;4876992;29;20296;-76
2023/04/01 09:10:41;;;;;;;23.83;12.35;;;10.40;99.90;;;;;;4865998;29;20722;-76
2023/04/01 09:13:32;;;;;;;24.57;11.57;;;10.30;99.90;;;;;;4875836;29;20120;-76
2023/04/01 09:16:18;;;;;;;22.37;11.60;;;10.30;99.90;;;;;;4876086;29;20304;-76
2023/04/01 09:19:09;;;;;;;21.10;11.63;;;10.30;99.90;;;;;;4860717;29;20285;-76
2023/04/01 09:22:00;;;;;;;17.53;9.57;;;10.40;99.90;;;;;;4868230;29;20293;-77
2023/04/01 09:25:00;;;;;;;13.77;8.47;;;10.40;99.90;;;;;;4858378;29;20312;-75
2023/04/01 09:27:41;;;;;;;23.97;9.97;;;10.50;99.90;;;;;;4783593;29;20299;-74
2023/04/01 09:30:19;;;;;;;19.03;9.87;;;10.60;99.90;;;;;;4854186;29;20319;-75
2023/04/01 09:33:06;;;;;;;13.33;9.07;;;10.70;99.90;;;;;;4874725;29;20281;-75
2023/04/01 09:35:50;;;;;;;12.93;8.33;;;10.80;99.90;;;;;;4859930;29;21142;-76
2023/04/01 09:38:28;;;;;;;15.43;8.53;;;11.00;99.90;;;;;;4853425;29;20356;-76
2023/04/01 09:41:06;;;;;;;10.43;7.63;;;11.10;99.90;;;;;;4872643;29;20784;-76
2023/04/01 09:44:01;;;;;;;11.37;8.30;;;11.10;99.90;;;;;;4876145;29;20376;-76
2023/04/01 09:46:48;;;;;;;12.03;7.87;;;11.10;99.90;;;;;;4865082;29;20320;-76
2023/04/01 09:49:49;;;;;;;12.17;7.10;;;11.00;99.90;;;;;;4877474;29;20309;-76
2023/04/01 09:52:26;;;;;;;10.93;7.17;;;10.90;99.90;;;;;;4865737;29;20301;-76
2023/04/01 09:55:02;;;;;;;9.00;6.67;;;10.80;99.90;;;;;;4859416;29;20840;-76
2023/04/01 09:57:34;;;;;;;10.00;6.60;;;10.80;99.90;;;;;;4858775;29;20762;-76
2023/04/01 10:00:37;;;;;;;9.23;6.57;;;10.80;99.90;;;;;;4875899;29;20308;-76
2023/04/01 10:03:13;;;;;;;10.73;6.03;;;10.80;99.90;;;;;;4861113;29;20440;-76
2023/04/01 10:05:53;;;;;;;8.23;5.50;;;10.70;99.90;;;;;;4875913;29;20363;-77
2023/04/01 10:08:55;;;;;;;7.07;5.50;;;10.80;99.90;;;;;;4857201;29;20301;-76
2023/04/01 10:11:42;;;;;;;8.93;5.33;;;10.70;99.90;;;;;;4836716;29;20360;-76
2023/04/01 10:14:29;;;;;;;11.50;5.87;;;10.70;99.90;;;;;;4881227;29;20289;-76
2023/04/01 10:17:31;;;;;;;8.17;5.60;;;10.60;99.90;;;;;;4872831;29;20292;-76
2023/04/01 10:20:15;;;;;;;9.00;6.40;;;10.60;99.90;;;;;;4881645;29;20348;-76
2023/04/01 10:22:56;;;;;;;9.73;7.40;;;10.60;99.90;;;;;;4865386;29;20285;-75
2023/04/01 10:25:40;;;;;;;10.20;7.80;;;10.70;99.90;;;;;;4864080;29;20459;-74
2023/04/01 10:28:43;;;;;;;10.17;6.43;;;10.70;99.90;;;;;;4872379;29;20801;-76
2023/04/01 10:31:46;;;;;;;10.93;6.87;;;10.80;99.90;;;;;;4880478;29;20293;-75
2023/04/01 10:34:45;;;;;;;11.60;7.70;;;10.90;99.90;;;;;;4875945;29;20816;-74
2023/04/01 10:37:42;;;;;;;10.43;7.77;;;10.90;99.90;;;;;;4876827;29;20292;-75
2023/04/01 10:40:07;;;;;;;8.53;7.17;;;11.00;99.90;;;;;;4858033;29;20291;-74
2023/04/01 10:43:11;;;;;;;8.87;7.03;;;11.00;99.90;;;;;;4878639;29;20304;-74
2023/04/01 10:46:01;;;;;;;8.03;6.97;;;11.10;99.90;;;;;;4862072;29;20063;-75
2023/04/01 10:48:55;;;;;;;7.93;6.90;;;11.00;99.90;;;;;;4858780;29;20345;-75
2023/04/01 10:52:08;;;;;;;7.33;5.60;;;11.00;99.90;;;;;;4863293;29;20296;-75
2023/04/01 10:54:57;;;;;;;8.17;5.77;;;11.00;99.90;;;;;;4850969;29;20309;-75
2023/04/01 10:57:31;;;;;;;6.40;5.23;;;10.90;99.90;;;;;;4862746;29;20303;-75
2023/04/01 11:00:07;;;;;;;7.03;4.80;;;10.80;99.90;;;;;;4861134;29;20356;-75
2023/04/01 11:02:33;;;;;;;;;;;10.80;99.90;;;;;;4858893;29;20049;-75
2023/04/01 11:05:20;;;;;;;8.40;4.70;;;10.70;99.90;;;;;;4852486;29;19919;-75
2023/04/01 11:08:11;;;;;;;8.70;5.43;;;10.60;99.90;;;;;;4853375;29;20091;-75
2023/04/01 11:10:55;;;;;;;6.47;4.67;;;10.60;99.90;;;;;;4872565;29;20840;-75
2023/04/01 11:13:33;;;;;;;6.63;4.63;;;10.70;99.90;;;;;;4857150;29;20301;-75
2023/04/01 11:16:36;;;;;;;7.57;5.20;;;10.70;99.90;;;;;;4873571;29;20424;-77
2023/04/01 11:19:33;;;;;;;6.47;4.67;;;10.70;99.90;;;;;;4863971;29;20287;-76
2023/04/01 11:22:10;;;;;;;7.17;4.73;;;10.70;99.90;;;;;;4860532;29;20333;-76
2023/04/01 11:25:25;;;;;;;8.23;4.83;;;10.60;99.90;;;;;;4875981;29;20347;-75
2023/04/01 11:28:18;;;;;;;7.60;5.00;;;10.60;99.90;;;;;;4875489;29;20285;-76
2023/04/01 11:30:59;;;;;;;7.00;5.10;;;10.70;99.90;;;;;;4865305;29;20778;-76
2023/04/01 11:33:33;;;;;;;5.23;4.23;;;10.70;99.90;;;;;;4872151;29;20297;-76
2023/04/01 11:36:15;;;;;;;6.47;4.47;;;10.70;99.90;;;;;;4875968;29;20304;-76
2023/04/01 11:39:09;;;;;;;5.13;4.33;;;10.70;99.90;;;;;;4863635;29;20092;-75
2023/04/01 11:41:47;;;;;;;5.60;4.17;;;10.70;99.90;;;;;;4879311;29;20285;-75
2023/04/01 11:44:28;;;;;;;5.63;4.00;;;10.70;99.90;;;;;;4875698;29;20793;-76
2023/04/01 11:47:18;;;;;;;5.40;4.00;;;10.70;99.90;;;;;;4865372;29;20296;-76
2023/04/01 11:49:52;;;;;;;5.80;4.07;;;10.60;99.90;;;;;;4872727;29;20312;-76
2023/04/01 11:52:37;;;;;;;5.43;3.40;;;10.60;99.90;;;;;;4861295;29;20368;-75
2023/04/01 11:55:14;;;;;;;;;;;10.60;99.90;;;;;;4861911;29;20296;-75
2023/04/01 11:57:55;;;;;;;4.17;3.30;;;10.50;99.90;;;;;;4879577;29;20495;-76
2023/04/01 12:00:45;;;;;;;4.97;2.83;;;10.50;99.90;;;;;;4862608;29;20829;-75
2023/04/01 12:03:38;;;;;;;4.27;2.50;;;10.60;99.90;;;;;;4859968;29;21228;-75
2023/04/01 12:06:33;;;;;;;4.23;2.63;;;10.70;99.90;;;;;;4870082;29;20295;-76
2023/04/01 12:09:24;;;;;;;3.85;2.30;;;10.80;99.90;;;;;;4877558;29;20638;-75
2023/04/01 12:12:08;;;;;;;3.30;2.57;;;10.80;99.90;;;;;;4852934;29;20052;-76
2023/04/01 12:14:43;;;;;;;5.90;3.03;;;10.80;99.90;;;;;;4851984;29;20329;-77
2023/04/01 12:17:14;;;;;;;4.07;2.65;;;10.80;99.90;;;;;;4879180;29;20297;-76
2023/04/01 12:20:15;;;;;;;4.43;2.60;;;10.90;99.90;;;;;;4860568;29;20826;-76
2023/04/01 12:22:50;;;;;;;5.30;2.30;;;10.90;99.90;;;;;;4858338;29;20288;-75
2023/04/01 12:25:49;;;;;;;3.97;2.20;;;10.80;99.90;;;;;;4862305;29;20285;-75
2023/04/01 12:28:18;;;;;;;3.00;2.17;;;10.70;99.90;;;;;;4875044;29;20064;-75
2023/04/01 12:31:01;;;;;;;4.87;2.10;;;10.70;99.90;;;;;;4876748;29;20309;-75
2023/04/01 12:33:48;;;;;;;3.60;2.70;;;10.60;99.90;;;;;;4857575;29;20695;-76
2023/04/01 12:36:29;;;;;;;4.97;3.33;;;10.50;99.90;;;;;;4890498;29;20285;-76
2023/04/01 12:39:22;;;;;;;6.13;3.00;;;10.50;99.90;;;;;;4858696;29;20290;-75
2023/04/01 12:42:16;;;;;;;3.87;2.70;;;10.50;99.90;;;;;;4870146;29;20786;-76
2023/04/01 12:44:54;;;;;;;4.83;2.93;;;10.60;99.90;;;;;;4874363;29;20388;-74
2023/04/01 12:47:27;;;;;;;5.80;3.17;;;10.50;99.90;;;;;;4857222;29;20330;-76
2023/04/01 12:50:13;;;;;;;5.40;2.63;;;10.50;99.90;;;;;;4860308;29;20305;-76
2023/04/01 12:53:09;;;;;;;4.13;2.67;;;10.50;99.90;;;;;;4859623;29;20284;-75
2023/04/01 12:55:52;;;;;;;4.07;2.33;;;10.40;99.90;;;;;;4874471;29;20683;-75
2023/04/01 12:58:18;;;;;;;3.53;2.23;;;10.40;99.90;;;;;;4879835;29;20289;-76
2023/04/01 13:01:09;;;;;;;4.03;2.60;;;10.30;99.90;;;;;;4877525;29;20380;-76
2023/04/01 13:04:01;;;;;;;3.80;2.10;;;10.20;99.90;;;;;;4855874;29;20309;-74
2023/04/01 13:06:41;;;;;;;5.23;2.60;;;10.10;99.90;;;;;;4873771;29;20336;-76
2023/04/01 13:09:38;;;;;;;3.57;2.23;;;10.10;99.90;;;;;;4878514;29;20881;-75
2023/04/01 13:12:56;;;;;;;3.90;2.27;;;10.20;99.90;;;;;;4865335;29;20667;-76
2023/04/01 13:15:33;;;;;;;2.80;2.40;;;10.10;99.90;;;;;;4824275;29;20661;-76
2023/04/01 13:18:14;;;;;;;3.20;2.23;;;10.10;99.90;;;;;;4859795;29;20281;-76
2023/04/01 13:20:57;;;;;;;3.10;2.10;;;10.10;99.90;;;;;;4870064;29;20339;-75
2023/04/01 13:23:41;;;;;;;4.40;2.83;;;10.20;99.90;;;;;;4862046;29;20339;-76
2023/04/01 13:26:26;;;;;;;3.90;2.10;;;10.30;99.90;;;;;;4859498;29;20709;-76
2023/04/01 13:29:05;;;;;;;2.57;2.27;;;10.30;99.90;;;;;;4860641;29;20364;-73
2023/04/01 13:31:47;;;;;;;6.70;2.53;;;10.30;99.90;;;;;;4862047;29;20299;-74